createdAt,value
2023-03-17T00:01:45.042Z,5.02
2023-03-17T00:04:13.599Z,4.08
2023-03-17T00:06:41.797Z,3.19
2023-03-17T00:09:15.037Z,2.48
2023-03-17T00:11:43.753Z,1.87
2023-03-17T00:14:11.091Z,1.40
2023-03-17T00:16:41.667Z,1.06
2023-03-17T00:19:18.565Z,0.78
2023-03-17T00:21:49.394Z,0.53
2023-03-17T00:24:16.554Z,0.30
2023-03-17T00:26:43.970Z,0.09
2023-03-17T00:29:11.039Z,-0.08
2023-03-17T00:31:39.758Z,-0.24
2023-03-17T00:34:08.246Z,-0.39
2023-03-17T00:36:36.236Z,-0.55
2023-03-17T00:39:04.311Z,-0.70
2023-03-17T00:41:31.148Z,-0.71
2023-03-17T00:43:58.915Z,0.04
2023-03-17T00:46:29.483Z,0.97
2023-03-17T00:49:26.518Z,1.73
2023-03-17T00:51:58.443Z,2.37
2023-03-17T00:54:33.320Z,2.72
2023-03-17T00:57:07.796Z,3.01
2023-03-17T00:59:46.005Z,3.23
2023-03-17T01:02:14.097Z,3.33
2023-03-17T01:04:45.525Z,3.42
2023-03-17T01:07:14.395Z,3.51
2023-03-17T01:09:41.648Z,3.63
2023-03-17T01:12:12.946Z,3.75
2023-03-17T01:14:41.221Z,3.88
2023-03-17T01:17:17.274Z,3.93
2023-03-17T01:19:45.742Z,3.97
2023-03-17T01:22:13.903Z,3.97
2023-03-17T01:24:41.533Z,3.98
2023-03-17T01:27:08.686Z,4.03
2023-03-17T01:29:35.867Z,4.15
2023-03-17T01:32:02.993Z,4.04
2023-03-17T01:34:29.815Z,3.18
2023-03-17T01:36:56.985Z,2.25
2023-03-17T01:39:23.804Z,1.53
2023-03-17T01:41:50.984Z,0.99
2023-03-17T01:44:19.956Z,0.60
2023-03-17T01:46:47.786Z,0.28
2023-03-17T01:49:25.436Z,0.00
2023-03-17T01:52:14.432Z,-0.21
2023-03-17T01:55:10.865Z,-0.38
2023-03-17T01:57:51.715Z,-0.52
2023-03-17T02:00:23.557Z,-0.62
2023-03-17T02:02:54.221Z,-0.55
2023-03-17T02:05:24.573Z,0.26
2023-03-17T02:07:52.754Z,0.94
2023-03-17T02:10:22.185Z,1.43
2023-03-17T02:12:54.025Z,1.73
2023-03-17T02:15:22.943Z,1.95
2023-03-17T02:17:50.244Z,2.11
2023-03-17T02:20:17.510Z,2.24
2023-03-17T02:22:47.836Z,2.47
2023-03-17T02:25:15.072Z,2.70
2023-03-17T02:27:46.599Z,2.83
2023-03-17T02:30:16.594Z,2.91
2023-03-17T02:32:43.801Z,2.98
2023-03-17T02:35:11.434Z,3.02
2023-03-17T02:37:38.919Z,3.36
2023-03-17T02:40:07.950Z,3.79
2023-03-17T02:42:35.921Z,4.07
2023-03-17T02:45:03.182Z,4.23
2023-03-17T02:47:30.273Z,4.37
2023-03-17T02:49:57.452Z,4.27
2023-03-17T02:52:25.562Z,3.28
2023-03-17T02:54:52.414Z,2.25
2023-03-17T02:57:19.673Z,1.43
2023-03-17T02:59:47.039Z,0.84
2023-03-17T03:02:14.841Z,0.37
2023-03-17T03:04:42.357Z,0.01
2023-03-17T03:07:10.314Z,-0.26
2023-03-17T03:09:37.699Z,-0.51
2023-03-17T03:12:06.817Z,-0.70
2023-03-17T03:14:33.934Z,-0.91
2023-03-17T03:17:00.857Z,-1.10
2023-03-17T03:19:28.019Z,-1.27
2023-03-17T03:21:54.946Z,-1.41
2023-03-17T03:24:21.776Z,-1.54
2023-03-17T03:26:48.616Z,-1.52
2023-03-17T03:29:15.577Z,-0.65
2023-03-17T03:31:43.138Z,0.41
2023-03-17T03:34:10.041Z,1.28
2023-03-17T03:36:37.346Z,1.96
2023-03-17T03:39:04.496Z,2.48
2023-03-17T03:41:32.021Z,2.81
2023-03-17T03:43:58.846Z,3.04
2023-03-17T03:46:26.972Z,3.29
2023-03-17T03:48:55.289Z,3.46
2023-03-17T03:51:22.174Z,3.51
2023-03-17T03:53:49.177Z,3.66
2023-03-17T03:56:16.220Z,3.84
2023-03-17T03:58:43.172Z,3.97
2023-03-17T04:01:10.505Z,4.17
2023-03-17T04:03:38.538Z,4.30
2023-03-17T04:06:06.490Z,4.20
2023-03-17T04:08:33.944Z,3.18
2023-03-17T04:11:01.299Z,2.03
2023-03-17T04:13:28.647Z,1.12
2023-03-17T04:15:55.609Z,0.43
2023-03-17T04:18:22.610Z,-0.12
2023-03-17T04:20:49.568Z,-0.55
2023-03-17T04:23:16.488Z,-0.87
2023-03-17T04:25:43.425Z,-1.11
2023-03-17T04:28:11.335Z,-1.32
2023-03-17T04:30:38.652Z,-1.49
2023-03-17T04:33:05.458Z,-1.63
2023-03-17T04:35:32.491Z,-1.58
2023-03-17T04:37:59.370Z,-0.76
2023-03-17T04:40:26.946Z,0.28
2023-03-17T04:42:53.800Z,1.10
2023-03-17T04:45:21.255Z,1.74
2023-03-17T04:47:48.179Z,2.42
2023-03-17T04:50:15.217Z,2.91
2023-03-17T04:52:42.495Z,3.14
2023-03-17T04:55:12.146Z,3.25
2023-03-17T04:57:39.111Z,3.30
2023-03-17T05:00:07.893Z,3.40
2023-03-17T05:02:35.606Z,3.83
2023-03-17T05:05:08.112Z,4.29
2023-03-17T05:07:35.274Z,4.32
2023-03-17T05:10:02.524Z,3.31
2023-03-17T05:12:29.576Z,2.26
2023-03-17T05:14:56.434Z,1.43
2023-03-17T05:17:23.469Z,0.75
2023-03-17T05:19:50.608Z,0.21
2023-03-17T05:22:17.460Z,-0.21
2023-03-17T05:24:45.005Z,-0.58
2023-03-17T05:27:12.502Z,-0.90
2023-03-17T05:29:39.863Z,-1.15
2023-03-17T05:32:06.816Z,-1.35
2023-03-17T05:34:34.033Z,-1.52
2023-03-17T05:37:01.782Z,-1.66
2023-03-17T05:39:28.935Z,-1.75
2023-03-17T05:41:57.512Z,-1.56
2023-03-17T05:44:25.385Z,-0.42
2023-03-17T05:46:52.299Z,0.56
2023-03-17T05:49:19.334Z,1.21
2023-03-17T05:51:46.698Z,1.74
2023-03-17T05:54:14.187Z,2.22
2023-03-17T05:56:41.944Z,2.61
2023-03-17T05:59:10.664Z,3.00
2023-03-17T06:01:37.646Z,3.39
2023-03-17T06:04:05.076Z,3.64
2023-03-17T06:06:32.589Z,3.61
2023-03-17T06:09:00.175Z,2.77
2023-03-17T06:11:27.778Z,1.83
2023-03-17T06:13:54.993Z,1.18
2023-03-17T06:16:22.810Z,0.72
2023-03-17T06:18:50.110Z,0.38
2023-03-17T06:21:17.557Z,0.12
2023-03-17T06:23:44.586Z,-0.02
2023-03-17T06:26:11.582Z,0.56
2023-03-17T06:28:38.587Z,1.53
2023-03-17T06:31:07.342Z,2.13
2023-03-17T06:33:35.547Z,2.58
2023-03-17T06:36:03.615Z,2.92
2023-03-17T06:38:30.667Z,3.40
2023-03-17T06:40:58.479Z,4.02
2023-03-17T06:43:25.545Z,4.21
2023-03-17T06:45:53.081Z,3.56
2023-03-17T06:48:20.311Z,2.79
2023-03-17T06:50:50.529Z,2.22
2023-03-17T06:53:17.793Z,1.91
2023-03-17T06:55:45.876Z,1.74
2023-03-17T06:58:13.547Z,1.64
2023-03-17T07:00:41.228Z,1.57
2023-03-17T07:03:08.315Z,1.54
2023-03-17T07:05:35.291Z,1.59
2023-03-17T07:08:02.269Z,2.27
2023-03-17T07:10:29.468Z,3.41
2023-03-17T07:12:57.067Z,4.44
2023-03-17T07:15:24.363Z,5.19
2023-03-17T07:17:51.561Z,5.71
2023-03-17T07:20:19.545Z,5.20
2023-03-17T07:22:46.935Z,4.54
2023-03-17T07:25:24.528Z,4.02
2023-03-17T07:28:06.687Z,3.66
2023-03-17T07:30:43.914Z,3.46
2023-03-17T07:33:11.898Z,3.39
2023-03-17T07:35:38.945Z,3.46
2023-03-17T07:38:06.385Z,3.58
2023-03-17T07:40:35.237Z,3.66
2023-03-17T07:43:02.935Z,3.75
2023-03-17T07:45:30.090Z,3.92
2023-03-17T07:47:57.832Z,4.13
2023-03-17T07:50:25.319Z,4.36
2023-03-17T07:52:52.296Z,4.63
2023-03-17T07:55:19.336Z,4.87
2023-03-17T07:57:46.869Z,5.13
2023-03-17T08:00:14.802Z,5.37
2023-03-17T08:02:41.924Z,5.64
2023-03-17T08:05:10.547Z,5.90
2023-03-17T08:07:41.101Z,6.10
2023-03-17T08:10:11.984Z,6.26
2023-03-17T08:12:39.894Z,6.39
2023-03-17T08:15:08.260Z,6.56
2023-03-17T08:17:36.826Z,6.80
2023-03-17T08:20:05.340Z,7.05
2023-03-17T08:22:32.650Z,7.32
2023-03-17T08:24:59.496Z,7.65
2023-03-17T08:27:27.015Z,7.97
2023-03-17T08:29:54.093Z,8.29
2023-03-17T08:32:21.025Z,8.56
2023-03-17T08:34:48.792Z,8.83
2023-03-17T08:37:15.734Z,9.12
2023-03-17T08:39:42.881Z,9.34
2023-03-17T08:42:10.062Z,9.58
2023-03-17T08:44:37.743Z,9.81
2023-03-17T08:47:05.036Z,10.01
2023-03-17T08:49:35.120Z,10.16
2023-03-17T08:52:03.745Z,10.29
2023-03-17T08:54:30.871Z,10.39
2023-03-17T08:56:58.723Z,10.48
2023-03-17T08:59:25.700Z,10.58
2023-03-17T09:01:52.743Z,10.69
2023-03-17T09:04:21.010Z,10.71
2023-03-17T09:07:02.316Z,10.75
2023-03-17T09:09:31.521Z,10.79
2023-03-17T09:11:58.413Z,11.02
2023-03-17T09:14:25.834Z,11.34
2023-03-17T09:16:53.240Z,11.56
2023-03-17T09:19:21.419Z,11.84
2023-03-17T09:21:49.109Z,12.07
2023-03-17T09:24:16.684Z,12.21
2023-03-17T09:26:44.199Z,12.35
2023-03-17T09:29:11.193Z,12.47
2023-03-17T09:31:38.913Z,12.58
2023-03-17T09:34:06.798Z,12.77
2023-03-17T09:36:34.061Z,12.97
2023-03-17T09:39:01.744Z,13.15
2023-03-17T09:41:57.358Z,13.35
2023-03-17T09:44:50.755Z,13.57
2023-03-17T09:47:36.420Z,13.73
2023-03-17T09:50:11.016Z,13.74
2023-03-17T09:52:39.318Z,13.61
2023-03-17T09:55:12.632Z,13.55
2023-03-17T09:57:41.158Z,13.54
2023-03-17T10:00:23.352Z,13.31
2023-03-17T10:02:50.697Z,13.03
2023-03-17T10:05:17.696Z,12.89
2023-03-17T10:08:26.851Z,12.86
2023-03-17T10:11:35.433Z,12.99
2023-03-17T10:14:18.250Z,13.22
2023-03-17T10:16:57.334Z,13.33
2023-03-17T10:19:39.847Z,13.44
2023-03-17T10:23:04.111Z,13.39
2023-03-17T10:25:44.566Z,13.26
2023-03-17T10:28:36.257Z,13.41
2023-03-17T10:31:30.056Z,13.45
2023-03-17T10:34:38.551Z,13.33
2023-03-17T10:37:46.302Z,13.45
2023-03-17T10:40:29.869Z,13.53
2023-03-17T10:43:12.723Z,13.58
2023-03-17T10:45:46.957Z,13.76
2023-03-17T10:48:22.874Z,13.95
2023-03-17T10:51:00.680Z,14.20
2023-03-17T10:53:45.771Z,14.33
2023-03-17T10:56:28.238Z,14.47
2023-03-17T10:59:26.633Z,14.57
2023-03-17T11:01:58.277Z,14.59
2023-03-17T11:04:38.293Z,14.51
2023-03-17T11:07:17.082Z,14.48
2023-03-17T11:09:49.873Z,14.50
2023-03-17T11:12:39.816Z,14.52
2023-03-17T11:15:14.377Z,14.37
2023-03-17T11:17:59.298Z,14.19
2023-03-17T11:21:01.796Z,14.05
2023-03-17T11:24:02.196Z,14.04
2023-03-17T11:26:32.276Z,14.16
2023-03-17T11:29:31.168Z,14.36
2023-03-17T11:32:34.138Z,14.66
2023-03-17T11:35:38.550Z,14.85
2023-03-17T11:38:42.213Z,14.84
2023-03-17T11:41:31.895Z,14.90
2023-03-17T11:44:19.176Z,14.87
2023-03-17T11:46:52.882Z,14.64
2023-03-17T11:49:25.365Z,14.45
2023-03-17T11:52:34.466Z,14.37
2023-03-17T11:55:42.383Z,14.49
2023-03-17T11:58:19.790Z,14.71
2023-03-17T12:01:00.714Z,14.93
2023-03-17T12:03:46.778Z,15.28
2023-03-17T12:06:20.809Z,15.52
2023-03-17T12:08:52.963Z,15.54
2023-03-17T12:11:28.334Z,15.52
2023-03-17T12:14:12.132Z,15.64
2023-03-17T12:16:44.221Z,15.65
2023-03-17T12:19:53.002Z,15.57
2023-03-17T12:22:31.292Z,15.53
2023-03-17T12:25:18.299Z,15.66
2023-03-17T12:28:00.821Z,15.87
2023-03-17T12:30:45.901Z,16.01
2023-03-17T12:33:39.440Z,15.97
2023-03-17T12:36:08.331Z,15.94
2023-03-17T12:38:43.809Z,16.13
2023-03-17T12:41:18.768Z,16.53
2023-03-17T12:44:04.210Z,17.03
2023-03-17T12:46:50.578Z,17.46
2023-03-17T12:49:44.149Z,17.68
2023-03-17T12:52:32.092Z,17.58
2023-03-17T12:55:25.418Z,17.30
2023-03-17T12:58:31.222Z,16.91
2023-03-17T13:01:17.863Z,16.61
2023-03-17T13:04:13.704Z,16.47
2023-03-17T13:06:58.144Z,16.10
2023-03-17T13:09:38.833Z,15.80
2023-03-17T13:12:07.073Z,15.63
2023-03-17T13:14:48.352Z,15.50
2023-03-17T13:17:19.115Z,15.40
2023-03-17T13:20:14.860Z,15.35
2023-03-17T13:23:13.882Z,15.37
2023-03-17T13:25:45.872Z,15.48
2023-03-17T13:28:13.276Z,15.49
2023-03-17T13:31:52.527Z,15.46
2023-03-17T13:34:21.452Z,15.57
2023-03-17T13:36:54.362Z,15.56
2023-03-17T13:39:42.715Z,15.34
2023-03-17T13:42:39.206Z,15.13
2023-03-17T13:45:24.638Z,14.95
2023-03-17T13:47:52.974Z,14.74
2023-03-17T13:50:33.055Z,14.54
2023-03-17T13:53:08.475Z,14.33
2023-03-17T13:55:39.407Z,14.17
2023-03-17T13:58:11.577Z,14.07
2023-03-17T14:00:42.567Z,13.96
2023-03-17T14:03:20.212Z,13.87
2023-03-17T14:05:49.602Z,13.81
2023-03-17T14:08:23.005Z,13.70
2023-03-17T14:10:58.285Z,13.62
2023-03-17T14:13:28.369Z,13.53
2023-03-17T14:16:03.932Z,13.42
2023-03-17T14:18:36.335Z,13.32
2023-03-17T14:21:10.505Z,13.17
2023-03-17T14:23:39.198Z,13.04
2023-03-17T14:26:12.313Z,12.89
2023-03-17T14:28:39.439Z,12.76
2023-03-17T14:31:08.427Z,12.68
2023-03-17T14:33:41.383Z,12.66
2023-03-17T14:36:14.329Z,12.58
2023-03-17T14:38:48.899Z,12.53
2023-03-17T14:41:27.605Z,12.52
2023-03-17T14:43:59.643Z,12.53
2023-03-17T14:46:28.186Z,12.50
2023-03-17T14:49:17.998Z,12.47
2023-03-17T14:51:49.342Z,12.44
2023-03-17T14:54:28.697Z,12.42
2023-03-17T14:57:02.398Z,12.41
2023-03-17T14:59:35.495Z,12.44
2023-03-17T15:02:28.799Z,12.46
2023-03-17T15:05:24.891Z,12.47
2023-03-17T15:07:52.127Z,12.47
2023-03-17T15:10:24.840Z,12.44
2023-03-17T15:13:05.250Z,12.40
2023-03-17T15:15:50.751Z,12.37
2023-03-17T15:18:31.712Z,12.34
2023-03-17T15:21:11.755Z,12.30
2023-03-17T15:23:41.998Z,12.26
2023-03-17T15:26:22.921Z,12.23
2023-03-17T15:28:49.897Z,12.19
2023-03-17T15:31:16.971Z,12.14
2023-03-17T15:33:44.998Z,12.07
2023-03-17T15:36:31.838Z,12.02
2023-03-17T15:38:59.886Z,11.96
2023-03-17T15:41:26.901Z,11.92
2023-03-17T15:43:53.984Z,11.89
2023-03-17T15:46:27.805Z,11.85
2023-03-17T15:48:55.646Z,11.84
2023-03-17T15:51:23.241Z,11.81
2023-03-17T15:53:50.502Z,11.77
2023-03-17T15:56:21.182Z,11.74
2023-03-17T15:58:49.558Z,11.69
2023-03-17T16:01:17.508Z,11.63
2023-03-17T16:03:48.222Z,11.59
2023-03-17T16:06:18.525Z,11.52
2023-03-17T16:08:46.749Z,11.48
2023-03-17T16:11:31.430Z,11.43
2023-03-17T16:14:00.427Z,11.38
2023-03-17T16:16:34.170Z,11.33
2023-03-17T16:19:17.768Z,11.27
2023-03-17T16:21:51.483Z,11.22
2023-03-17T16:24:27.614Z,11.18
2023-03-17T16:26:54.803Z,11.12
2023-03-17T16:29:21.904Z,11.09
2023-03-17T16:31:51.247Z,11.04
2023-03-17T16:34:22.653Z,11.01
2023-03-17T16:36:50.915Z,10.96
2023-03-17T16:39:21.618Z,10.91
2023-03-17T16:41:50.277Z,10.85
2023-03-17T16:44:20.248Z,10.79
2023-03-17T16:46:48.312Z,10.72
2023-03-17T16:49:18.241Z,10.66
2023-03-17T16:51:45.865Z,10.59
2023-03-17T16:54:13.297Z,10.52
2023-03-17T16:56:42.688Z,10.45
2023-03-17T16:59:32.008Z,10.37
2023-03-17T17:01:59.174Z,10.30
2023-03-17T17:04:26.510Z,10.23
2023-03-17T17:06:53.690Z,10.17
2023-03-17T17:09:20.591Z,10.10
2023-03-17T17:11:47.538Z,10.04
2023-03-17T17:14:14.694Z,9.99
2023-03-17T17:16:41.737Z,9.94
2023-03-17T17:19:18.005Z,9.89
2023-03-17T17:21:45.363Z,9.83
2023-03-17T17:24:13.869Z,9.80
2023-03-17T17:26:41.178Z,9.75
2023-03-17T17:29:08.127Z,9.69
2023-03-17T17:31:35.236Z,9.64
2023-03-17T17:34:10.222Z,9.59
2023-03-17T17:36:51.580Z,9.55
2023-03-17T17:39:35.879Z,9.49
2023-03-17T17:42:04.832Z,9.42
2023-03-17T17:44:38.729Z,9.36
2023-03-17T17:47:26.303Z,9.31
2023-03-17T17:50:08.955Z,9.27
2023-03-17T17:52:35.909Z,9.22
2023-03-17T17:55:03.031Z,9.16
2023-03-17T17:57:30.153Z,9.12
2023-03-17T17:59:58.018Z,9.07
2023-03-17T18:02:25.027Z,9.03
2023-03-17T18:04:53.077Z,9.00
2023-03-17T18:07:20.113Z,8.96
2023-03-17T18:09:47.199Z,8.92
2023-03-17T18:12:14.865Z,8.87
2023-03-17T18:14:42.088Z,8.83
2023-03-17T18:17:09.317Z,8.80
2023-03-17T18:19:36.300Z,8.77
2023-03-17T18:22:04.128Z,8.72
2023-03-17T18:24:31.671Z,8.68
2023-03-17T18:26:59.036Z,8.64
2023-03-17T18:29:26.184Z,8.60
2023-03-17T18:31:55.244Z,8.57
2023-03-17T18:34:25.711Z,8.52
2023-03-17T18:36:53.828Z,8.49
2023-03-17T18:39:20.919Z,8.44
2023-03-17T18:41:48.898Z,8.39
2023-03-17T18:44:16.748Z,8.35
2023-03-17T18:46:44.627Z,8.30
2023-03-17T18:49:11.925Z,8.25
2023-03-17T18:51:39.428Z,8.21
2023-03-17T18:54:07.075Z,8.16
2023-03-17T18:56:34.476Z,8.12
2023-03-17T18:59:01.585Z,8.08
2023-03-17T19:01:28.700Z,8.03
2023-03-17T19:03:55.975Z,7.98
2023-03-17T19:06:23.822Z,7.94
2023-03-17T19:08:51.295Z,7.90
2023-03-17T19:11:21.910Z,7.86
2023-03-17T19:13:51.285Z,7.81
2023-03-17T19:16:19.262Z,7.76
2023-03-17T19:18:46.565Z,7.68
2023-03-17T19:21:13.790Z,7.62
2023-03-17T19:23:41.854Z,7.55
2023-03-17T19:26:09.321Z,7.49
2023-03-17T19:28:36.261Z,7.42
2023-03-17T19:31:04.141Z,7.35
2023-03-17T19:33:32.829Z,7.28
2023-03-17T19:36:05.825Z,7.20
2023-03-17T19:38:33.355Z,7.13
2023-03-17T19:41:00.955Z,7.03
2023-03-17T19:43:39.960Z,6.91
2023-03-17T19:46:10.210Z,6.77
2023-03-17T19:48:37.742Z,6.63
2023-03-17T19:51:05.314Z,6.48
2023-03-17T19:53:32.648Z,6.33
2023-03-17T19:56:01.376Z,6.19
2023-03-17T19:58:28.722Z,6.04
2023-03-17T20:00:55.764Z,5.90
2023-03-17T20:03:25.594Z,5.78
2023-03-17T20:05:53.686Z,5.65
2023-03-17T20:08:22.674Z,5.54
2023-03-17T20:10:54.095Z,5.42
2023-03-17T20:13:22.830Z,5.31
2023-03-17T20:15:52.120Z,5.22
2023-03-17T20:18:20.245Z,5.14
2023-03-17T20:20:52.576Z,5.06
2023-03-17T20:23:19.990Z,4.96
2023-03-17T20:25:47.234Z,4.88
2023-03-17T20:28:14.957Z,4.80
2023-03-17T20:30:44.305Z,4.74
2023-03-17T20:33:13.248Z,4.67
2023-03-17T20:35:42.565Z,4.62
2023-03-17T20:38:12.963Z,4.62
2023-03-17T20:40:40.968Z,4.69
2023-03-17T20:43:08.237Z,4.74
2023-03-17T20:45:36.319Z,4.76
2023-03-17T20:48:03.847Z,4.78
2023-03-17T20:50:31.403Z,4.77
2023-03-17T20:52:58.798Z,4.74
2023-03-17T20:55:26.081Z,4.70
2023-03-17T20:57:53.527Z,4.66
2023-03-17T21:00:22.258Z,4.62
2023-03-17T21:02:50.981Z,4.56
2023-03-17T21:05:21.372Z,4.51
2023-03-17T21:07:49.330Z,4.47
2023-03-17T21:10:17.711Z,4.43
2023-03-17T21:12:45.196Z,4.40
2023-03-17T21:15:13.209Z,4.37
2023-03-17T21:17:40.689Z,4.30
2023-03-17T21:20:10.185Z,4.25
2023-03-17T21:22:37.248Z,4.19
2023-03-17T21:25:05.518Z,4.12
2023-03-17T21:27:32.685Z,4.07
2023-03-17T21:29:59.718Z,4.03
2023-03-17T21:32:27.051Z,3.99
2023-03-17T21:34:54.680Z,3.95
2023-03-17T21:37:22.197Z,3.87
2023-03-17T21:39:49.830Z,3.80
2023-03-17T21:42:16.992Z,3.73
2023-03-17T21:44:46.158Z,3.65
2023-03-17T21:47:13.235Z,3.58
2023-03-17T21:49:40.598Z,3.50
2023-03-17T21:52:08.462Z,3.40
2023-03-17T21:54:35.578Z,3.33
2023-03-17T21:57:04.128Z,3.25
2023-03-17T21:59:34.703Z,3.18
2023-03-17T22:02:02.465Z,3.11
2023-03-17T22:04:30.756Z,3.03
2023-03-17T22:06:59.154Z,2.95
2023-03-17T22:09:27.170Z,2.87
2023-03-17T22:11:54.493Z,2.79
2023-03-17T22:14:22.438Z,2.70
2023-03-17T22:16:49.884Z,2.62
2023-03-17T22:19:20.623Z,2.56
2023-03-17T22:21:48.847Z,2.51
2023-03-17T22:24:17.131Z,2.46
2023-03-17T22:26:44.652Z,2.40
2023-03-17T22:29:11.722Z,2.36
2023-03-17T22:31:38.761Z,2.33
2023-03-17T22:34:07.220Z,2.29
2023-03-17T22:36:34.257Z,2.25
2023-03-17T22:39:01.340Z,2.21
2023-03-17T22:41:29.914Z,2.16
2023-03-17T22:43:58.015Z,2.13
2023-03-17T22:46:25.280Z,2.09
2023-03-17T22:48:53.217Z,2.05
2023-03-17T22:51:23.244Z,2.02
2023-03-17T22:53:52.108Z,1.99
2023-03-17T22:56:20.115Z,1.95
2023-03-17T22:58:48.193Z,1.91
2023-03-17T23:01:16.958Z,1.89
2023-03-17T23:03:45.348Z,1.85
2023-03-17T23:06:13.495Z,1.82
2023-03-17T23:08:43.387Z,1.80
2023-03-17T23:11:17.704Z,1.78
2023-03-17T23:13:46.418Z,1.77
2023-03-17T23:16:15.035Z,1.76
2023-03-17T23:18:46.113Z,1.74
2023-03-17T23:21:22.068Z,1.73
2023-03-17T23:23:49.853Z,1.71
2023-03-17T23:26:17.089Z,1.70
2023-03-17T23:28:45.237Z,1.68
2023-03-17T23:31:13.583Z,1.67
2023-03-17T23:33:40.496Z,1.66
2023-03-17T23:36:09.548Z,1.64
2023-03-17T23:38:37.017Z,1.65
2023-03-17T23:41:04.093Z,1.66
2023-03-17T23:43:31.448Z,1.67
2023-03-17T23:45:58.752Z,1.67
2023-03-17T23:48:25.698Z,1.67
2023-03-17T23:50:53.300Z,1.67
2023-03-17T23:53:22.670Z,1.68
2023-03-17T23:55:50.639Z,1.68
2023-03-17T23:58:18.597Z,1.67
